createdAt,value
2018-12-16T00:01:41.040Z,98473.89
2018-12-16T00:06:44.628Z,98467.55
2018-12-16T00:11:48.245Z,98474.02
2018-12-16T00:16:51.831Z,98476.70
2018-12-16T00:21:55.732Z,98484.94
2018-12-16T00:27:11.067Z,98500.16
2018-12-16T00:32:14.731Z,98502.73
2018-12-16T00:37:18.406Z,98513.82
2018-12-16T00:42:21.823Z,98529.03
2018-12-16T00:47:25.372Z,98534.94
2018-12-16T00:52:29.280Z,98541.59
2018-12-16T00:57:32.900Z,98532.83
2018-12-16T01:02:42.036Z,98529.50
2018-12-16T01:07:45.693Z,98519.09
2018-12-16T01:12:49.192Z,98512.31
2018-12-16T01:17:52.720Z,98507.95
2018-12-16T01:22:56.196Z,98493.81
2018-12-16T01:27:59.632Z,98490.61
2018-12-16T01:33:03.172Z,98470.22
2018-12-16T01:38:06.976Z,98445.27
2018-12-16T01:43:10.561Z,98441.95
2018-12-16T01:48:14.269Z,98441.70
2018-12-16T01:53:17.679Z,98419.48
2018-12-16T01:58:21.665Z,98414.30
2018-12-16T02:03:25.428Z,98404.98
2018-12-16T02:08:28.900Z,98398.06
2018-12-16T02:13:32.373Z,98385.07
2018-12-16T02:18:36.045Z,98380.67
2018-12-16T02:23:39.796Z,98361.47
2018-12-16T02:28:43.256Z,98362.75
2018-12-16T02:33:46.673Z,98351.78
2018-12-16T02:38:50.342Z,98343.42
2018-12-16T02:43:54.160Z,98345.52
2018-12-16T02:48:57.614Z,98327.88
2018-12-16T02:54:01.068Z,98322.64
2018-12-16T02:59:04.688Z,98306.70
2018-12-16T03:04:08.121Z,98285.00
2018-12-16T03:09:11.832Z,98259.19
2018-12-16T03:14:15.258Z,98264.49
2018-12-16T03:19:18.756Z,98239.14
2018-12-16T03:24:22.281Z,98239.59
2018-12-16T03:29:25.738Z,98234.23
2018-12-16T03:34:29.241Z,98233.19
2018-12-16T03:39:32.667Z,98230.39
2018-12-16T03:44:36.127Z,98221.25
2018-12-16T03:49:39.853Z,98222.16
2018-12-16T03:54:43.379Z,98218.55
2018-12-16T03:59:47.180Z,98217.77
2018-12-16T04:04:50.694Z,98211.55
2018-12-16T04:09:54.162Z,98194.04
2018-12-16T04:14:57.669Z,98184.38
2018-12-16T04:20:01.191Z,98184.73
2018-12-16T04:25:05.340Z,98176.76
2018-12-16T04:30:08.950Z,98189.45
2018-12-16T04:35:12.500Z,98180.95
2018-12-16T04:40:16.071Z,98179.42
2018-12-16T04:45:19.488Z,98182.43
2018-12-16T04:50:23.145Z,98185.68
2018-12-16T04:55:26.662Z,98165.86
2018-12-16T05:00:30.491Z,98149.40
2018-12-16T05:05:34.104Z,98147.04
2018-12-16T05:10:37.799Z,98155.80
2018-12-16T05:15:41.217Z,98153.93
2018-12-16T05:20:44.700Z,98152.36
2018-12-16T05:25:48.468Z,98152.67
2018-12-16T05:30:52.015Z,98141.66
2018-12-16T05:35:55.433Z,98157.24
2018-12-16T05:40:59.039Z,98173.13
2018-12-16T05:46:02.521Z,98182.78
2018-12-16T05:51:06.036Z,98165.72
2018-12-16T05:56:09.752Z,98169.77
2018-12-16T06:01:13.224Z,98163.06
2018-12-16T06:06:16.666Z,98168.03
2018-12-16T06:11:20.144Z,98174.59
2018-12-16T06:16:24.133Z,98162.47
2018-12-16T06:21:27.644Z,98162.15
2018-12-16T06:26:31.408Z,98185.83
2018-12-16T06:31:34.828Z,98175.64
2018-12-16T06:36:38.488Z,98148.36
2018-12-16T06:41:42.060Z,98160.97
2018-12-16T06:46:45.618Z,98166.50
2018-12-16T06:51:49.132Z,98169.26
2018-12-16T06:56:52.712Z,98145.73
2018-12-16T07:01:56.208Z,98153.59
2018-12-16T07:06:59.724Z,98155.89
2018-12-16T07:12:03.399Z,98153.06
2018-12-16T07:17:07.020Z,98146.54
2018-12-16T07:22:10.588Z,98155.89
2018-12-16T07:27:14.245Z,98171.82
2018-12-16T07:32:17.708Z,98171.44
2018-12-16T07:37:21.248Z,98171.33
2018-12-16T07:42:24.937Z,98176.12
2018-12-16T07:47:28.433Z,98172.56
2018-12-16T07:52:31.863Z,98165.00
2018-12-16T07:57:35.536Z,98176.88
2018-12-16T08:02:39.116Z,98172.75
2018-12-16T08:07:42.695Z,98170.73
2018-12-16T08:12:46.384Z,98176.74
2018-12-16T08:17:49.836Z,98171.19
2018-12-16T08:22:53.440Z,98194.38
2018-12-16T08:27:57.065Z,98188.95
2018-12-16T08:33:00.493Z,98201.09
2018-12-16T08:38:04.037Z,98200.31
2018-12-16T08:43:07.444Z,98206.53
2018-12-16T08:48:11.244Z,98212.38
2018-12-16T08:53:14.916Z,98220.16
2018-12-16T08:58:18.357Z,98222.73
2018-12-16T09:03:21.787Z,98215.73
2018-12-16T09:08:25.255Z,98213.72
2018-12-16T09:13:28.864Z,98210.06
2018-12-16T09:18:32.661Z,98217.89
2018-12-16T09:23:36.207Z,98222.67
2018-12-16T09:28:40.703Z,98224.77
2018-12-16T09:33:44.581Z,98218.08
2018-12-16T09:38:48.291Z,98208.18
2018-12-16T09:43:51.896Z,98216.00
2018-12-16T09:48:55.628Z,98211.44
2018-12-16T09:53:59.232Z,98201.02
2018-12-16T09:59:02.655Z,98202.84
2018-12-16T10:04:06.259Z,98201.31
2018-12-16T10:09:09.936Z,98192.55
2018-12-16T10:14:13.443Z,98185.59
2018-12-16T10:19:16.904Z,98190.70
2018-12-16T10:24:20.420Z,98183.87
2018-12-16T10:29:24.105Z,98189.01
2018-12-16T10:34:27.515Z,98192.16
2018-12-16T10:39:31.172Z,98188.91
2018-12-16T10:44:34.621Z,98188.78
2018-12-16T10:49:38.040Z,98183.59
2018-12-16T10:54:41.593Z,98187.09
2018-12-16T10:59:45.126Z,98179.63
2018-12-16T11:04:48.538Z,98187.03
2018-12-16T11:09:52.151Z,98173.86
2018-12-16T11:14:56.488Z,98163.22
2018-12-16T11:20:00.109Z,98163.16
2018-12-16T11:25:05.857Z,98166.28
2018-12-16T11:30:10.277Z,98167.83
2018-12-16T11:35:14.076Z,98169.93
2018-12-16T11:40:17.663Z,98172.55
2018-12-16T11:45:21.464Z,98169.97
2018-12-16T11:50:25.392Z,98160.90
2018-12-16T11:55:29.515Z,98164.98
2018-12-16T12:00:32.921Z,98172.18
2018-12-16T12:05:36.429Z,98163.11
2018-12-16T12:10:40.059Z,98158.34
2018-12-16T12:15:43.575Z,98161.02
2018-12-16T12:20:47.089Z,98148.11
2018-12-16T12:25:50.651Z,98142.48
2018-12-16T12:30:54.504Z,98146.88
2018-12-16T12:35:57.952Z,98144.59
2018-12-16T12:41:01.369Z,98137.17
2018-12-16T12:46:05.025Z,98137.03
2018-12-16T12:51:08.488Z,98151.16
2018-12-16T12:56:12.049Z,98139.34
2018-12-16T13:01:15.505Z,98139.05
2018-12-16T13:06:19.072Z,98133.42
2018-12-16T13:11:22.853Z,98130.95
2018-12-16T13:16:26.356Z,98132.13
2018-12-16T13:21:30.244Z,98141.36
2018-12-16T13:26:34.317Z,98147.30
2018-12-16T13:31:37.884Z,98165.32
2018-12-16T13:36:41.449Z,98149.84
2018-12-16T13:41:45.052Z,98155.32
2018-12-16T13:46:48.532Z,98167.88
2018-12-16T13:51:52.266Z,98162.62
2018-12-16T13:56:55.696Z,98165.80
2018-12-16T14:01:59.156Z,98175.27
2018-12-16T14:07:02.684Z,98176.90
2018-12-16T14:12:06.287Z,98182.47
2018-12-16T14:17:09.756Z,98185.09
2018-12-16T14:22:13.347Z,98187.23
2018-12-16T14:27:16.789Z,98183.91
2018-12-16T14:32:20.520Z,98187.83
2018-12-16T14:37:24.109Z,98185.24
2018-12-16T14:42:27.696Z,98185.48
2018-12-16T14:47:31.308Z,98191.20
2018-12-16T14:52:34.812Z,98182.39
2018-12-16T14:57:38.212Z,98183.31
2018-12-16T15:02:41.752Z,98201.26
2018-12-16T15:07:45.264Z,98195.19
2018-12-16T15:12:48.744Z,98207.36
2018-12-16T15:17:52.454Z,98202.21
2018-12-16T15:22:56.168Z,98211.23
2018-12-16T15:27:59.932Z,98213.38
2018-12-16T15:33:03.368Z,98221.08
2018-12-16T15:38:06.953Z,98223.91
2018-12-16T15:43:10.459Z,98225.99
2018-12-16T15:48:14.048Z,98218.97
2018-12-16T15:53:17.768Z,98216.38
2018-12-16T15:58:21.337Z,98231.11
2018-12-16T16:03:25.004Z,98237.42
2018-12-16T16:08:28.568Z,98240.58
2018-12-16T16:13:32.035Z,98248.67
2018-12-16T16:18:35.756Z,98252.22
2018-12-16T16:23:39.264Z,98250.77
2018-12-16T16:28:42.696Z,98247.03
2018-12-16T16:33:46.263Z,98258.33
2018-12-16T16:38:49.804Z,98247.18
2018-12-16T16:43:53.528Z,98252.66
2018-12-16T16:48:57.096Z,98259.59
2018-12-16T16:54:00.540Z,98261.14
2018-12-16T16:59:04.100Z,98255.58
2018-12-16T17:04:07.647Z,98260.72
2018-12-16T17:09:11.152Z,98271.33
2018-12-16T17:14:14.930Z,98273.20
2018-12-16T17:19:18.562Z,98270.98
2018-12-16T17:24:22.203Z,98276.56
2018-12-16T17:29:25.771Z,98287.15
2018-12-16T17:34:29.379Z,98288.74
2018-12-16T17:39:33.344Z,98291.36
2018-12-16T17:44:36.835Z,98288.41
2018-12-16T17:49:40.456Z,98293.64
2018-12-16T17:54:44.768Z,98298.88
2018-12-16T17:59:48.719Z,98301.64
2018-12-16T18:04:52.255Z,98299.56
2018-12-16T18:09:55.859Z,98311.69
2018-12-16T18:14:59.379Z,98313.62
2018-12-16T18:20:03.305Z,98312.32
2018-12-16T18:25:07.041Z,98323.05
2018-12-16T18:30:11.088Z,98333.03
2018-12-16T18:35:15.057Z,98326.97
2018-12-16T18:40:18.868Z,98326.09
2018-12-16T18:45:22.284Z,98331.37
2018-12-16T18:50:25.859Z,98336.53
2018-12-16T18:55:29.273Z,98341.86
2018-12-16T19:00:32.780Z,98337.64
2018-12-16T19:05:36.274Z,98342.92
2018-12-16T19:10:39.796Z,98342.00
2018-12-16T19:15:43.838Z,98349.86
2018-12-16T19:20:47.391Z,98350.39
2018-12-16T19:25:50.966Z,98355.16
2018-12-16T19:30:54.794Z,98352.34
2018-12-16T19:35:58.456Z,98348.27
2018-12-16T19:41:01.967Z,98350.98
2018-12-16T19:46:05.689Z,98359.12
2018-12-16T19:51:09.124Z,98359.28
2018-12-16T19:56:12.605Z,98363.36
2018-12-16T20:01:16.073Z,98368.64
2018-12-16T20:06:24.972Z,98369.32
2018-12-16T20:11:28.471Z,98384.66
2018-12-16T20:16:32.039Z,98392.44
2018-12-16T20:21:35.712Z,98395.45
2018-12-16T20:26:39.259Z,98390.34
2018-12-16T20:31:42.856Z,98389.52
2018-12-16T20:36:46.395Z,98389.95
2018-12-16T20:41:49.864Z,98389.96
2018-12-16T20:46:53.520Z,98398.79
2018-12-16T20:51:57.011Z,98397.17
2018-12-16T20:57:00.729Z,98394.80
2018-12-16T21:02:04.352Z,98404.03
2018-12-16T21:07:07.896Z,98403.50
2018-12-16T21:13:18.956Z,98402.52
2018-12-16T21:18:25.476Z,98396.90
2018-12-16T21:23:29.836Z,98399.95
2018-12-16T21:28:33.369Z,98402.77
2018-12-16T21:33:37.178Z,98404.65
2018-12-16T21:38:40.925Z,98409.74
2018-12-16T21:43:44.544Z,98409.02
2018-12-16T21:48:47.948Z,98412.52
2018-12-16T21:53:51.776Z,98414.99
2018-12-16T21:58:55.353Z,98424.22
2018-12-16T22:03:58.840Z,98423.16
2018-12-16T22:09:02.480Z,98422.32
2018-12-16T22:14:06.184Z,98429.03
2018-12-16T22:19:09.668Z,98432.81
2018-12-16T22:24:13.301Z,98441.99
2018-12-16T22:29:16.735Z,98440.05
2018-12-16T22:34:20.157Z,98439.76
2018-12-16T22:39:24.841Z,98442.86
2018-12-16T22:44:28.476Z,98442.47
2018-12-16T22:49:31.904Z,98447.72
2018-12-16T22:54:35.441Z,98447.92
2018-12-16T22:59:38.952Z,98445.73
2018-12-16T23:04:42.485Z,98446.27
2018-12-16T23:09:46.024Z,98445.58
2018-12-16T23:14:51.066Z,98439.65
2018-12-16T23:20:00.232Z,98440.58
2018-12-16T23:25:04.094Z,98442.75
2018-12-16T23:30:08.539Z,98442.99
2018-12-16T23:35:12.035Z,98448.23
2018-12-16T23:40:15.500Z,98451.40
2018-12-16T23:45:19.223Z,98443.97
2018-12-16T23:50:22.692Z,98445.08
2018-12-16T23:55:26.373Z,98447.61
